createdAt,value
2022-10-11T00:01:06.894Z,4.13
2022-10-11T00:03:55.736Z,4.67
2022-10-11T00:06:44.582Z,3.53
2022-10-11T00:09:33.462Z,3.70
2022-10-11T00:12:22.357Z,3.40
2022-10-11T00:15:14.565Z,3.97
2022-10-11T00:18:05.583Z,3.93
2022-10-11T00:21:01.859Z,3.80
2022-10-11T00:23:51.063Z,3.77
2022-10-11T00:26:44.389Z,3.67
2022-10-11T00:29:35.329Z,3.53
2022-10-11T00:32:24.230Z,4.00
2022-10-11T00:35:14.629Z,4.20
2022-10-11T00:38:03.497Z,3.20
2022-10-11T00:40:52.289Z,3.40
2022-10-11T00:43:41.152Z,4.60
2022-10-11T00:46:31.667Z,3.40
2022-10-11T00:49:23.531Z,3.40
2022-10-11T00:52:17.086Z,3.63
2022-10-11T00:55:08.018Z,3.90
2022-10-11T00:57:57.922Z,4.70
2022-10-11T01:00:46.805Z,4.50
2022-10-11T01:03:36.986Z,4.00
2022-10-11T01:06:25.893Z,5.13
2022-10-11T01:09:16.136Z,4.60
2022-10-11T01:12:06.490Z,4.70
2022-10-11T01:14:58.869Z,4.50
2022-10-11T01:17:51.068Z,5.17
2022-10-11T01:20:45.486Z,5.43
2022-10-11T01:23:49.218Z,4.80
2022-10-11T01:27:01.988Z,4.07
2022-10-11T01:29:58.006Z,4.97
2022-10-11T01:32:50.830Z,5.03
2022-10-11T01:35:42.573Z,4.97
2022-10-11T01:38:34.645Z,5.20
2022-10-11T01:41:25.679Z,5.67
2022-10-11T01:44:15.354Z,4.87
2022-10-11T01:47:04.192Z,5.30
2022-10-11T01:49:58.446Z,5.10
2022-10-11T01:52:47.728Z,5.17
2022-10-11T01:55:41.165Z,5.33
2022-10-11T01:58:36.033Z,5.20
2022-10-11T02:01:28.785Z,5.40
2022-10-11T02:04:21.424Z,5.40
2022-10-11T02:07:14.566Z,4.43
2022-10-11T02:10:07.581Z,5.13
2022-10-11T02:12:58.741Z,5.40
2022-10-11T02:15:49.210Z,5.73
2022-10-11T02:18:39.660Z,5.73
2022-10-11T02:21:29.143Z,5.20
2022-10-11T02:24:21.163Z,5.07
2022-10-11T02:27:11.466Z,5.00
2022-10-11T02:30:02.539Z,4.77
2022-10-11T02:32:53.226Z,4.87
2022-10-11T02:35:44.473Z,5.77
2022-10-11T02:38:36.474Z,4.63
2022-10-11T02:41:28.966Z,5.50
2022-10-11T02:44:18.886Z,5.77
2022-10-11T02:47:08.387Z,6.37
2022-10-11T02:49:57.365Z,6.40
2022-10-11T02:52:46.177Z,5.67
2022-10-11T02:55:35.076Z,5.33
2022-10-11T02:58:25.687Z,5.23
2022-10-11T03:01:14.630Z,5.70
2022-10-11T03:04:03.482Z,5.23
2022-10-11T03:06:52.322Z,5.30
2022-10-11T03:09:41.216Z,5.37
2022-10-11T03:12:30.036Z,6.40
2022-10-11T03:15:20.285Z,5.40
2022-10-11T03:18:09.158Z,6.63
2022-10-11T03:20:57.995Z,6.40
2022-10-11T03:23:46.959Z,6.20
2022-10-11T03:26:35.809Z,6.70
2022-10-11T03:29:24.714Z,7.70
2022-10-11T03:32:15.217Z,6.80
2022-10-11T03:35:04.310Z,6.10
2022-10-11T03:37:53.123Z,6.43
2022-10-11T03:40:41.999Z,6.87
2022-10-11T03:43:30.830Z,7.13
2022-10-11T03:46:19.663Z,7.20
2022-10-11T03:49:09.996Z,7.70
2022-10-11T03:51:58.830Z,6.93
2022-10-11T03:54:47.742Z,7.10
2022-10-11T03:57:36.541Z,6.40
2022-10-11T04:00:25.432Z,7.20
2022-10-11T04:03:14.314Z,6.27
2022-10-11T04:06:04.889Z,6.10
2022-10-11T04:08:53.903Z,6.33
2022-10-11T04:11:42.730Z,6.00
2022-10-11T04:14:31.647Z,5.93
2022-10-11T04:17:20.479Z,5.80
2022-10-11T04:20:10.033Z,5.80
2022-10-11T04:23:00.226Z,5.37
2022-10-11T04:25:49.078Z,6.20
2022-10-11T04:28:37.996Z,6.87
2022-10-11T04:31:26.922Z,7.17
2022-10-11T04:34:15.821Z,9.00
2022-10-11T04:37:04.653Z,9.13
2022-10-11T04:39:54.839Z,9.50
2022-10-11T04:42:43.750Z,9.73
2022-10-11T04:45:32.780Z,8.90
2022-10-11T04:48:21.610Z,10.03
2022-10-11T04:51:10.400Z,9.33
2022-10-11T04:53:59.226Z,9.00
2022-10-11T04:56:49.399Z,8.00
2022-10-11T04:59:38.280Z,9.67
2022-10-11T05:02:27.590Z,9.50
2022-10-11T05:05:17.576Z,10.20
2022-10-11T05:08:06.549Z,10.37
2022-10-11T05:10:58.585Z,9.30
2022-10-11T05:13:49.025Z,11.53
2022-10-11T05:16:37.890Z,10.40
2022-10-11T05:19:26.726Z,9.13
2022-10-11T05:22:15.651Z,10.93
2022-10-11T05:25:04.585Z,9.93
2022-10-11T05:27:53.421Z,10.10
2022-10-11T05:30:43.575Z,11.27
2022-10-11T05:33:32.865Z,11.80
2022-10-11T05:36:21.748Z,14.70
2022-10-11T05:39:10.580Z,11.67
2022-10-11T05:41:59.388Z,11.50
2022-10-11T05:44:48.213Z,11.43
2022-10-11T05:47:44.137Z,9.73
2022-10-11T05:50:33.343Z,11.50
2022-10-11T05:53:22.150Z,11.90
2022-10-11T05:56:19.211Z,11.63
2022-10-11T05:59:08.045Z,14.70
2022-10-11T06:01:56.870Z,16.47
2022-10-11T06:04:47.379Z,16.33
2022-10-11T06:07:37.219Z,22.23
2022-10-11T06:10:26.043Z,15.27
2022-10-11T06:13:14.861Z,15.63
2022-10-11T06:16:05.615Z,14.20
2022-10-11T06:18:55.262Z,13.93
2022-10-11T06:21:46.690Z,14.37
2022-10-11T06:24:35.544Z,14.43
2022-10-11T06:27:24.400Z,14.50
2022-10-11T06:30:14.128Z,14.60
2022-10-11T06:33:05.027Z,15.70
2022-10-11T06:35:58.507Z,14.73
2022-10-11T06:38:48.833Z,16.40
2022-10-11T06:41:37.696Z,14.97
2022-10-11T06:44:27.294Z,14.83
2022-10-11T06:47:16.202Z,15.90
2022-10-11T06:50:06.173Z,13.77
2022-10-11T06:52:55.061Z,14.40
2022-10-11T06:55:45.321Z,13.50
2022-10-11T06:58:34.465Z,13.77
2022-10-11T07:01:23.865Z,12.97
2022-10-11T07:04:12.989Z,11.40
2022-10-11T07:07:01.875Z,10.53
2022-10-11T07:09:51.449Z,8.40
2022-10-11T07:12:44.910Z,8.07
2022-10-11T07:15:34.574Z,6.70
2022-10-11T07:18:23.791Z,4.93
2022-10-11T07:21:13.833Z,4.90
2022-10-11T07:24:02.815Z,6.30
2022-10-11T07:26:51.608Z,4.63
2022-10-11T07:29:41.918Z,5.10
2022-10-11T07:32:30.850Z,8.23
2022-10-11T07:35:19.709Z,6.00
2022-10-11T07:38:08.651Z,5.83
2022-10-11T07:40:57.861Z,7.87
2022-10-11T07:43:47.848Z,7.47
2022-10-11T07:46:38.023Z,5.90
2022-10-11T07:49:27.065Z,6.30
2022-10-11T07:52:15.895Z,6.83
2022-10-11T07:55:04.808Z,6.43
2022-10-11T07:57:53.634Z,8.47
2022-10-11T08:00:43.102Z,6.60
2022-10-11T08:03:33.356Z,9.73
2022-10-11T08:06:23.582Z,8.40
2022-10-11T08:09:13.134Z,7.57
2022-10-11T08:12:01.965Z,8.33
2022-10-11T08:14:50.796Z,8.10
2022-10-11T08:17:39.717Z,7.90
2022-10-11T08:20:31.089Z,7.80
2022-10-11T08:23:20.949Z,7.13
2022-10-11T08:26:10.367Z,9.67
2022-10-11T08:29:02.126Z,9.30
2022-10-11T08:31:51.167Z,7.57
2022-10-11T08:34:40.034Z,9.35
2022-10-11T08:37:30.509Z,9.10
2022-10-11T08:40:20.882Z,8.02
2022-10-11T08:43:13.786Z,7.97
2022-10-11T08:46:04.623Z,8.23
2022-10-11T08:48:53.869Z,8.30
2022-10-11T08:51:44.962Z,8.05
2022-10-11T08:54:39.772Z,7.40
2022-10-11T08:57:30.365Z,8.95
2022-10-11T09:00:20.794Z,8.07
2022-10-11T09:03:17.121Z,7.70
2022-10-11T09:06:10.139Z,7.20
2022-10-11T09:09:06.357Z,7.07
2022-10-11T09:12:03.412Z,8.10
2022-10-11T09:15:03.127Z,7.00
2022-10-11T09:18:01.146Z,8.00
2022-10-11T09:20:53.875Z,5.80
2022-10-11T09:23:48.708Z,7.13
2022-10-11T09:26:41.706Z,6.10
2022-10-11T09:29:40.920Z,7.65
2022-10-11T09:32:31.924Z,5.88
2022-10-11T09:35:21.821Z,5.60
2022-10-11T09:38:15.729Z,6.07
2022-10-11T09:41:11.294Z,5.03
2022-10-11T09:44:00.324Z,5.18
2022-10-11T09:46:51.234Z,4.80
2022-10-11T09:49:42.101Z,3.40
2022-10-11T09:52:31.325Z,4.80
2022-10-11T09:55:34.378Z,3.85
2022-10-11T09:58:28.786Z,3.70
2022-10-11T10:01:24.716Z,2.88
2022-10-11T10:04:16.909Z,4.20
2022-10-11T10:07:18.485Z,3.13
2022-10-11T10:10:27.649Z,3.08
2022-10-11T10:13:21.733Z,6.70
2022-10-11T10:16:20.323Z,2.83
2022-10-11T10:19:17.704Z,2.28
2022-10-11T10:22:08.119Z,3.03
2022-10-11T10:24:57.606Z,1.90
2022-10-11T10:27:57.410Z,2.35
2022-10-11T10:30:54.290Z,2.95
2022-10-11T10:33:44.317Z,1.90
2022-10-11T10:36:35.812Z,2.10
2022-10-11T10:39:29.977Z,2.88
2022-10-11T10:42:20.640Z,1.98
2022-10-11T10:45:12.655Z,6.50
2022-10-11T10:48:09.105Z,2.47
2022-10-11T10:51:00.596Z,1.70
2022-10-11T10:53:52.596Z,2.25
2022-10-11T10:56:45.171Z,2.72
2022-10-11T10:59:43.585Z,3.03
2022-10-11T11:02:40.923Z,2.20
2022-10-11T11:05:39.948Z,2.25
2022-10-11T11:08:34.295Z,2.10
2022-10-11T11:11:33.474Z,2.08
2022-10-11T11:14:29.389Z,2.53
2022-10-11T11:17:23.938Z,2.13
2022-10-11T11:20:20.663Z,1.90
2022-10-11T11:23:14.672Z,1.98
2022-10-11T11:26:10.196Z,2.05
2022-10-11T11:29:05.082Z,2.03
2022-10-11T11:32:04.412Z,1.95
2022-10-11T11:34:55.197Z,2.72
2022-10-11T11:37:46.609Z,2.05
2022-10-11T11:40:38.471Z,2.40
2022-10-11T11:43:32.510Z,1.55
2022-10-11T11:46:23.843Z,1.92
2022-10-11T11:49:17.088Z,2.38
2022-10-11T11:52:07.233Z,1.27
2022-10-11T11:55:01.447Z,1.52
2022-10-11T11:58:02.061Z,2.47
2022-10-11T12:00:59.207Z,1.30
2022-10-11T12:03:50.154Z,1.55
2022-10-11T12:07:04.051Z,1.90
2022-10-11T12:09:51.283Z,2.30
2022-10-11T12:12:40.382Z,2.70
2022-10-11T12:15:29.377Z,1.98
2022-10-11T12:18:18.656Z,1.83
2022-10-11T12:21:09.078Z,1.85
2022-10-11T12:24:00.407Z,1.85
2022-10-11T12:26:49.733Z,1.90
2022-10-11T12:29:56.305Z,2.20
2022-10-11T12:32:50.957Z,1.98
2022-10-11T12:35:42.505Z,3.10
2022-10-11T12:38:33.746Z,1.70
2022-10-11T12:41:40.318Z,2.35
2022-10-11T12:44:31.060Z,1.60
2022-10-11T12:47:31.480Z,2.33
2022-10-11T12:50:21.630Z,2.00
2022-10-11T12:53:13.843Z,3.03
2022-10-11T12:56:06.941Z,2.05
2022-10-11T12:59:03.461Z,2.00
2022-10-11T13:01:55.589Z,3.38
2022-10-11T13:04:44.464Z,2.60
2022-10-11T13:07:33.622Z,2.28
2022-10-11T13:10:26.039Z,2.80
2022-10-11T13:13:18.908Z,1.70
2022-10-11T13:16:11.106Z,2.63
2022-10-11T13:19:01.805Z,1.88
2022-10-11T13:21:52.522Z,1.60
2022-10-11T13:24:42.497Z,1.98
2022-10-11T13:27:31.481Z,2.00
2022-10-11T13:30:21.585Z,2.72
2022-10-11T13:33:16.861Z,2.15
2022-10-11T13:36:08.540Z,1.90
2022-10-11T13:38:58.834Z,1.52
2022-10-11T13:41:47.696Z,1.77
2022-10-11T13:44:37.822Z,1.83
2022-10-11T13:47:28.276Z,2.00
2022-10-11T13:50:23.960Z,1.60
2022-10-11T13:53:25.265Z,1.77
2022-10-11T13:56:20.925Z,1.58
2022-10-11T13:59:13.721Z,1.50
2022-10-11T14:02:04.312Z,1.35
2022-10-11T14:04:53.493Z,1.77
2022-10-11T14:07:42.464Z,1.60
2022-10-11T14:10:32.845Z,1.65
2022-10-11T14:13:26.148Z,1.48
2022-10-11T14:16:29.348Z,1.52
2022-10-11T14:19:20.209Z,1.98
2022-10-11T14:22:13.891Z,1.85
2022-10-11T14:25:03.075Z,1.65
2022-10-11T14:27:54.261Z,1.30
2022-10-11T14:30:43.529Z,1.65
2022-10-11T14:33:32.739Z,1.52
2022-10-11T14:36:22.855Z,1.52
2022-10-11T14:39:15.184Z,1.55
2022-10-11T14:42:04.846Z,1.27
2022-10-11T14:44:55.188Z,1.58
2022-10-11T14:47:44.414Z,1.60
2022-10-11T14:50:36.641Z,1.20
2022-10-11T14:53:25.605Z,0.80
2022-10-11T14:56:18.937Z,1.30
2022-10-11T14:59:12.830Z,1.00
2022-10-11T15:02:03.305Z,1.40
2022-10-11T15:04:52.164Z,1.50
2022-10-11T15:07:41.013Z,1.07
2022-10-11T15:10:30.992Z,1.27
2022-10-11T15:13:20.021Z,1.53
2022-10-11T15:16:09.398Z,1.17
2022-10-11T15:18:59.702Z,0.93
2022-10-11T15:21:49.010Z,1.03
2022-10-11T15:24:37.832Z,1.05
2022-10-11T15:27:28.605Z,1.50
2022-10-11T15:30:19.359Z,1.15
2022-10-11T15:33:08.197Z,1.83
2022-10-11T15:35:58.402Z,1.00
2022-10-11T15:38:48.208Z,1.37
2022-10-11T15:41:38.210Z,0.83
2022-10-11T15:44:27.081Z,1.60
2022-10-11T15:47:16.946Z,1.10
2022-10-11T15:50:06.149Z,1.33
2022-10-11T15:52:56.374Z,0.97
2022-10-11T15:55:45.958Z,1.30
2022-10-11T15:58:36.197Z,2.00
2022-10-11T16:01:25.473Z,1.10
2022-10-11T16:04:14.649Z,1.40
2022-10-11T16:07:03.473Z,1.47
2022-10-11T16:09:53.644Z,3.07
2022-10-11T16:12:42.442Z,2.00
2022-10-11T16:15:31.396Z,1.90
2022-10-11T16:18:21.088Z,1.77
2022-10-11T16:21:10.775Z,1.57
2022-10-11T16:23:59.966Z,1.90
2022-10-11T16:26:50.097Z,2.67
2022-10-11T16:29:38.885Z,2.60
2022-10-11T16:32:28.019Z,2.13
2022-10-11T16:35:17.555Z,2.37
2022-10-11T16:38:06.386Z,1.90
2022-10-11T16:40:55.229Z,2.70
2022-10-11T16:43:45.476Z,2.40
2022-10-11T16:46:34.700Z,2.03
2022-10-11T16:49:24.854Z,2.10
2022-10-11T16:52:14.829Z,1.83
2022-10-11T16:55:03.738Z,2.50
2022-10-11T16:57:52.621Z,2.97
2022-10-11T17:00:44.782Z,2.67
2022-10-11T17:03:33.692Z,2.53
2022-10-11T17:06:22.489Z,2.57
2022-10-11T17:09:11.353Z,3.23
2022-10-11T17:12:00.210Z,4.17
2022-10-11T17:14:49.570Z,3.30
2022-10-11T17:17:39.740Z,3.87
2022-10-11T17:20:28.536Z,3.23
2022-10-11T17:23:17.478Z,3.73
2022-10-11T17:26:11.046Z,3.40
2022-10-11T17:29:00.907Z,3.43
2022-10-11T17:31:49.737Z,3.50
2022-10-11T17:34:39.885Z,3.37
2022-10-11T17:37:28.701Z,4.03
2022-10-11T17:40:17.674Z,3.83
2022-10-11T17:43:06.506Z,4.87
2022-10-11T17:45:58.547Z,6.00
2022-10-11T17:48:47.541Z,6.20
2022-10-11T17:51:38.339Z,5.20
2022-10-11T17:54:27.188Z,5.10
2022-10-11T17:57:16.049Z,7.07
2022-10-11T18:00:06.333Z,5.30
2022-10-11T18:02:57.358Z,5.10
2022-10-11T18:05:46.258Z,5.43
2022-10-11T18:08:40.420Z,5.17
2022-10-11T18:11:29.910Z,5.63
2022-10-11T18:14:18.992Z,6.30
2022-10-11T18:17:07.854Z,6.50
2022-10-11T18:19:56.673Z,6.47
2022-10-11T18:22:45.470Z,5.40
2022-10-11T18:25:35.972Z,5.43
2022-10-11T18:28:24.837Z,5.53
2022-10-11T18:31:15.172Z,4.40
2022-10-11T18:34:04.695Z,4.60
2022-10-11T18:36:53.565Z,4.87
2022-10-11T18:39:42.445Z,5.20
2022-10-11T18:42:32.871Z,4.30
2022-10-11T18:45:21.671Z,4.87
2022-10-11T18:48:10.532Z,5.03
2022-10-11T18:51:03.151Z,4.87
2022-10-11T18:53:52.669Z,4.80
2022-10-11T18:56:41.497Z,5.23
2022-10-11T18:59:32.886Z,5.70
2022-10-11T19:02:21.745Z,6.90
2022-10-11T19:05:10.849Z,6.80
2022-10-11T19:07:59.687Z,7.80
2022-10-11T19:10:48.509Z,6.53
2022-10-11T19:13:37.849Z,7.40
2022-10-11T19:16:29.426Z,8.40
2022-10-11T19:19:19.652Z,8.63
2022-10-11T19:22:08.594Z,8.03
2022-10-11T19:24:57.400Z,8.60
2022-10-11T19:27:46.230Z,8.27
2022-10-11T19:30:35.017Z,8.20
2022-10-11T19:33:25.272Z,7.77
2022-10-11T19:36:15.226Z,8.07
2022-10-11T19:39:04.363Z,7.60
2022-10-11T19:41:53.558Z,8.97
2022-10-11T19:44:42.476Z,7.80
2022-10-11T19:47:31.655Z,6.53
2022-10-11T19:50:21.966Z,8.40
2022-10-11T19:53:10.792Z,8.97
2022-10-11T19:56:02.101Z,7.50
2022-10-11T19:58:51.002Z,7.40
2022-10-11T20:01:41.100Z,9.07
2022-10-11T20:07:40.317Z,9.20
2022-10-11T20:10:29.125Z,8.97
2022-10-11T20:13:17.970Z,9.93
2022-10-11T20:16:07.888Z,9.07
2022-10-11T20:18:58.259Z,11.90
2022-10-11T20:21:47.167Z,15.23
2022-10-11T20:24:37.350Z,15.50
2022-10-11T20:27:26.190Z,12.83
2022-10-11T20:30:15.219Z,14.33
2022-10-11T20:33:04.462Z,11.83
2022-10-11T20:35:59.659Z,12.93
2022-10-11T20:38:49.683Z,12.70
2022-10-11T20:41:40.250Z,13.93
2022-10-11T20:44:29.039Z,14.70
2022-10-11T20:47:17.864Z,13.10
2022-10-11T20:50:07.155Z,13.40
2022-10-11T20:52:55.960Z,14.00
2022-10-11T20:55:44.752Z,14.70
2022-10-11T20:58:34.908Z,14.47
2022-10-11T21:01:26.114Z,15.40
2022-10-11T21:04:18.254Z,13.23
2022-10-11T21:07:07.181Z,15.63
2022-10-11T21:09:56.016Z,15.53
2022-10-11T21:12:44.877Z,17.30
2022-10-11T21:15:35.110Z,18.10
2022-10-11T21:18:23.971Z,17.77
2022-10-11T21:21:13.714Z,15.67
2022-10-11T21:24:03.629Z,15.93
2022-10-11T21:26:55.817Z,17.53
2022-10-11T21:29:47.113Z,18.10
2022-10-11T21:32:37.687Z,16.60
2022-10-11T21:35:26.804Z,15.97
2022-10-11T21:38:16.731Z,16.10
2022-10-11T21:41:05.899Z,17.90
2022-10-11T21:43:55.211Z,17.53
2022-10-11T21:49:54.246Z,15.30
2022-10-11T21:52:43.135Z,15.20
2022-10-11T21:55:31.958Z,15.17
2022-10-11T21:58:20.818Z,14.70
2022-10-11T22:01:09.669Z,14.10
2022-10-11T22:03:58.529Z,16.50
2022-10-11T22:06:48.728Z,16.50
2022-10-11T22:09:37.566Z,17.27
2022-10-11T22:12:26.431Z,16.27
2022-10-11T22:15:15.302Z,15.47
2022-10-11T22:18:04.161Z,17.63
2022-10-11T22:20:52.969Z,13.73
2022-10-11T22:23:44.031Z,12.20
2022-10-11T22:26:35.866Z,11.27
2022-10-11T22:29:24.723Z,10.80
2022-10-11T22:32:13.586Z,8.97
2022-10-11T22:35:02.590Z,10.47
2022-10-11T22:37:51.443Z,11.53
2022-10-11T22:40:42.399Z,11.40
2022-10-11T22:43:31.282Z,13.93
2022-10-11T22:46:20.339Z,12.03
2022-10-11T22:49:09.175Z,12.50
2022-10-11T22:51:58.024Z,10.33
2022-10-11T22:54:46.955Z,11.93
2022-10-11T22:57:37.640Z,10.87
2022-10-11T23:00:26.792Z,13.10
2022-10-11T23:03:16.016Z,12.90
2022-10-11T23:06:04.964Z,12.73
2022-10-11T23:08:53.781Z,11.90
2022-10-11T23:11:42.599Z,10.17
2022-10-11T23:14:32.793Z,11.37
2022-10-11T23:17:21.625Z,10.93
2022-10-11T23:20:10.912Z,10.30
2022-10-11T23:22:59.755Z,9.33
2022-10-11T23:25:48.587Z,9.60
2022-10-11T23:28:37.860Z,8.93
2022-10-11T23:31:28.074Z,8.17
2022-10-11T23:34:16.910Z,8.63
2022-10-11T23:37:06.234Z,8.53
2022-10-11T23:39:55.051Z,8.83
2022-10-11T23:42:44.065Z,8.70
2022-10-11T23:45:32.903Z,7.73
2022-10-11T23:48:23.125Z,7.87
2022-10-11T23:51:12.278Z,8.50
2022-10-11T23:54:01.487Z,7.53
2022-10-11T23:56:50.310Z,7.90
2022-10-11T23:59:39.156Z,7.43
